Terminal Aerodrome Forecast
Issued by NWS

Home | Current Version | Previous Version | Text Only | Print | Product List | Glossary On
Versions: 1 2 3 4 5 6 7 8 9 10 11 12 13 14 15 16 17 18 19 20 21 22 23 24
000
FTAK31 PANC 261134
TAFADQ
TAF
PADQ 261134Z 2612/2712 28011KT P6SM FEW050 SCT080
     FM262000 11004KT P6SM VCSH SCT025 BKN070
     FM270400 03005KT P6SM VCSH FEW005 BKN070
     FM270900 33008KT P6SM FEW005 BKN130=

USA.gov is the U.S. government's official web portal to all federal, state and local government web resources and services.